createdAt,value
2022-08-20T00:09:36.497Z,101259.88
2022-08-20T00:19:58.536Z,101254.84
2022-08-20T00:30:20.846Z,101239.75
2022-08-20T00:40:52.895Z,101213.97
2022-08-20T00:51:36.201Z,101202.28
2022-08-20T01:01:58.257Z,101212.22
2022-08-20T01:12:20.299Z,101221.16
2022-08-20T01:23:30.108Z,101221.38
2022-08-20T01:33:54.585Z,101232.50
2022-08-20T01:44:18.526Z,101232.97
2022-08-20T01:54:41.044Z,101237.69
2022-08-20T02:05:02.704Z,101231.28
2022-08-20T02:15:34.559Z,101236.66
2022-08-20T02:25:59.264Z,101240.97
2022-08-20T02:36:21.001Z,101248.06
2022-08-20T02:46:42.619Z,101242.94
2022-08-20T02:57:04.667Z,101248.56
2022-08-20T03:07:26.223Z,101244.22
2022-08-20T03:17:48.471Z,101245.50
2022-08-20T03:28:10.741Z,101258.97
2022-08-20T03:38:33.528Z,101253.28
2022-08-20T03:48:59.936Z,101265.59
2022-08-20T03:59:22.100Z,101268.31
2022-08-20T04:09:46.435Z,101269.88
2022-08-20T04:20:10.839Z,101270.75
2022-08-20T04:30:33.419Z,101276.88
2022-08-20T04:41:01.130Z,101283.34
2022-08-20T04:51:22.917Z,101297.59
2022-08-20T05:01:45.561Z,101309.00
2022-08-20T05:12:07.453Z,101327.22
2022-08-20T05:22:31.049Z,101326.41
2022-08-20T05:32:52.684Z,101335.16
2022-08-20T05:43:14.820Z,101344.16
2022-08-20T05:53:37.626Z,101354.47
2022-08-20T06:04:18.223Z,101341.94
2022-08-20T06:14:39.848Z,101344.72
2022-08-20T06:25:03.214Z,101334.72
2022-08-20T06:35:25.198Z,101335.25
2022-08-20T06:45:46.743Z,101342.78
2022-08-20T06:56:08.365Z,101352.09
2022-08-20T07:06:29.931Z,101361.69
2022-08-20T07:16:51.499Z,101363.38
2022-08-20T07:27:13.166Z,101370.00
2022-08-20T07:37:40.848Z,101377.69
2022-08-20T07:48:11.841Z,101387.78
2022-08-20T07:58:36.635Z,101396.84
2022-08-20T08:09:06.370Z,101400.91
2022-08-20T08:19:33.791Z,101407.53
2022-08-20T08:29:55.483Z,101422.72
2022-08-20T08:40:17.385Z,101439.28
2022-08-20T08:50:53.106Z,101440.09
2022-08-20T09:01:54.281Z,101433.63
2022-08-20T09:12:09.594Z,101449.03
2022-08-20T09:22:33.357Z,101451.19
2022-08-20T09:32:54.892Z,101449.88
2022-08-20T09:43:16.484Z,101465.66
2022-08-20T09:53:38.019Z,101463.34
2022-08-20T10:03:59.616Z,101469.13
2022-08-20T10:14:21.141Z,101467.16
2022-08-20T10:24:43.055Z,101480.88
2022-08-20T10:35:05.110Z,101482.00
2022-08-20T10:45:26.741Z,101476.94
2022-08-20T10:55:48.277Z,101475.75
2022-08-20T11:06:09.843Z,101474.38
2022-08-20T11:16:31.504Z,101478.94
2022-08-20T11:26:53.448Z,101484.09
2022-08-20T11:37:16.543Z,101483.09
2022-08-20T11:47:38.502Z,101495.75
2022-08-20T11:58:00.942Z,101473.06
2022-08-20T12:08:27.058Z,101473.84
2022-08-20T12:18:49.646Z,101464.28
2022-08-20T12:29:11.174Z,101484.94
2022-08-20T12:39:34.623Z,101493.16
2022-08-20T12:50:01.179Z,101495.63
2022-08-20T13:00:34.493Z,101497.75
2022-08-20T13:10:56.047Z,101486.66
2022-08-20T13:21:20.082Z,101489.97
2022-08-20T13:31:45.533Z,101483.47
2022-08-20T13:42:07.285Z,101480.13
2022-08-20T13:52:28.872Z,101472.97
2022-08-20T14:02:50.491Z,101458.50
2022-08-20T14:13:15.316Z,101469.84
2022-08-20T14:23:37.181Z,101473.16
2022-08-20T14:33:58.694Z,101467.16
2022-08-20T14:44:20.247Z,101463.50
2022-08-20T14:54:42.564Z,101457.16
2022-08-20T15:05:07.015Z,101447.84
2022-08-20T15:15:28.900Z,101451.75
2022-08-20T15:25:50.413Z,101456.25
2022-08-20T15:36:12.151Z,101454.78
2022-08-20T15:46:36.249Z,101458.56
2022-08-20T15:57:07.334Z,101462.16
2022-08-20T16:07:37.083Z,101470.81
2022-08-20T16:18:03.203Z,101470.59
2022-08-20T16:28:32.644Z,101472.81
2022-08-20T16:39:03.408Z,101466.69
2022-08-20T16:49:28.462Z,101469.72
2022-08-20T17:00:14.921Z,101472.84
2022-08-20T17:10:58.427Z,101483.31
2022-08-20T17:21:26.967Z,101478.09
2022-08-20T17:31:54.587Z,101494.94
2022-08-20T17:42:26.125Z,101506.34
2022-08-20T17:52:58.816Z,101506.72
2022-08-20T18:03:24.829Z,101520.75
2022-08-20T18:14:04.724Z,101510.88
2022-08-20T18:24:46.387Z,101512.22
2022-08-20T18:35:34.281Z,101517.09
2022-08-20T18:45:55.926Z,101530.94
2022-08-20T18:56:17.689Z,101527.75
2022-08-20T19:06:47.751Z,101522.78
2022-08-20T19:17:43.864Z,101530.44
2022-08-20T19:28:23.602Z,101526.28
2022-08-20T19:38:50.116Z,101526.94
2022-08-20T19:49:43.115Z,101524.69
2022-08-20T20:00:11.238Z,101514.16
2022-08-20T20:10:35.691Z,101514.63
2022-08-20T20:21:11.595Z,101507.25
2022-08-20T20:31:42.559Z,101515.06
2022-08-20T20:42:07.138Z,101521.34
2022-08-20T20:52:35.648Z,101516.75
2022-08-20T21:02:57.389Z,101512.72
2022-08-20T21:13:21.784Z,101501.28
2022-08-20T21:23:43.357Z,101506.44
2022-08-20T21:34:04.868Z,101509.22
2022-08-20T21:44:29.751Z,101498.63
2022-08-20T21:54:52.372Z,101503.13
2022-08-20T22:05:15.099Z,101504.97
2022-08-20T22:15:36.654Z,101508.22
2022-08-20T22:25:58.199Z,101505.69
2022-08-20T22:36:19.742Z,101501.56
2022-08-20T22:46:47.384Z,101495.88
2022-08-20T22:57:10.415Z,101494.47
2022-08-20T23:07:34.085Z,101499.19
2022-08-20T23:18:01.870Z,101493.81
2022-08-20T23:28:25.106Z,101487.28
2022-08-20T23:38:46.983Z,101483.94
2022-08-20T23:49:08.553Z,101471.13
2022-08-20T23:59:30.156Z,101468.03
